Terminal Aerodrome Forecast
Issued by NWS

Home | Current Version | Previous Version | Text Only | Print | Product List | Glossary On
Versions: 1 2 3 4 5 6 7 8 9 10 11 12
000
FTUS44 KCRP 291100
TAFLRD
TAF
KLRD 291137Z 2912/3012 15006KT P6SM FEW015 SCT250
      TEMPO 2913/2916 5SM BR
     FM291600 17009KT P6SM FEW250
     FM292200 13007KT P6SM SCT250
     FM300500 10005KT P6SM SCT018 BKN200
     FM300800 05013KT P6SM OVC018
      AMD NOT SKED TIL 291400=

USA.gov is the U.S. government's official web portal to all federal, state and local government web resources and services.